Time;durP1;ratioP1;P1;durP2;ratioP2;P2;SDS_P1;SDS_P2;PMS_P1;PMS_P2;Temp;Humidity;BMP_temperature;BMP_pressure;BME280_temperature;BME280_humidity;BME280_pressure;Samples;Min_cycle;Max_cycle;Signal;HPM_P1;HPM_P2
2023/06/22 00:00:58;;;;;;;4.53;4.13;;;;;;;22.29;53.28;101676.41;4993336;28;107236;-81
2023/06/22 00:03:25;;;;;;;5.47;5.07;;;;;;;22.28;53.39;101677.69;4994345;28;98977;-80
2023/06/22 00:05:51;;;;;;;4.70;4.40;;;;;;;22.25;53.33;101678.81;4993730;28;96800;-82
2023/06/22 00:08:17;;;;;;;5.33;4.93;;;;;;;22.24;53.56;101688.50;4996941;28;97596;-80
2023/06/22 00:10:43;;;;;;;5.10;4.70;;;;;;;22.20;53.62;101665.69;4998695;28;97793;-83
2023/06/22 00:13:09;;;;;;;4.63;4.33;;;;;;;22.17;53.67;101677.97;4998982;28;97189;-81
2023/06/22 00:15:36;;;;;;;4.93;4.53;;;;;;;22.15;53.60;101674.97;4990094;28;97073;-82
2023/06/22 00:18:02;;;;;;;5.30;4.90;;;;;;;22.11;53.79;101679.44;4986835;28;97112;-80
2023/06/22 00:20:27;;;;;;;4.60;4.30;;;;;;;22.08;53.68;101674.94;4995707;28;97894;-80
2023/06/22 00:22:54;;;;;;;5.27;4.77;;;;;;;22.04;53.78;101680.88;4993378;28;97377;-79
2023/06/22 00:25:20;;;;;;;4.30;4.00;;;;;;;22.01;53.90;101681.97;4993328;28;97818;-81
2023/06/22 00:27:45;;;;;;;5.20;4.80;;;;;;;22.00;53.61;101691.69;4995744;28;97013;-81
2023/06/22 00:30:11;;;;;;;4.27;3.97;;;;;;;22.02;53.81;101697.47;4983521;28;99056;-81
2023/06/22 00:32:36;;;;;;;4.37;3.97;;;;;;;21.92;53.81;101701.31;4996941;28;97451;-82
2023/06/22 00:35:02;;;;;;;4.43;4.10;;;;;;;21.84;53.88;101701.25;4993498;28;96970;-81
2023/06/22 00:37:29;;;;;;;4.67;4.37;;;;;;;21.82;53.96;101697.47;4993046;28;97587;-81
2023/06/22 00:39:55;;;;;;;4.70;4.40;;;;;;;21.78;54.28;101689.38;4996458;28;98704;-81
2023/06/22 00:42:21;;;;;;;4.23;3.90;;;;;;;21.78;54.30;101699.84;4980197;28;99109;-81
2023/06/22 00:44:46;;;;;;;4.50;4.10;;;;;;;21.79;54.42;101704.91;4998091;28;97512;-80
2023/06/22 00:47:14;;;;;;;4.90;4.50;;;;;;;21.78;54.34;101700.59;4993602;28;96965;-81
2023/06/22 00:49:40;;;;;;;4.80;4.40;;;;;;;21.77;54.29;101699.09;4996100;28;97173;-81
2023/06/22 00:52:13;;;;;;;5.33;4.83;;;;;;;21.72;54.39;101699.97;4978259;28;99176;-81
2023/06/22 00:54:40;;;;;;;4.40;4.00;;;;;;;21.74;54.31;101697.38;4981331;28;97371;-82
2023/06/22 00:57:10;;;;;;;5.70;4.50;;;;;;;21.77;54.17;101693.50;4997603;28;97187;-81
2023/06/22 00:59:36;;;;;;;5.17;4.77;;;;;;;21.72;54.27;101688.03;4993209;28;97184;-81
2023/06/22 01:02:01;;;;;;;4.00;3.70;;;;;;;21.65;54.33;101679.00;4996423;28;97002;-81
2023/06/22 01:04:35;;;;;;;5.03;4.53;;;;;;;21.60;54.76;101691.06;4995335;28;97030;-81
2023/06/22 01:07:39;;;;;;;4.83;4.43;;;;;;;21.53;55.19;101672.16;4998575;28;97097;-82
2023/06/22 01:10:27;;;;;;;4.60;4.30;;;;;;;21.51;55.32;101679.59;4997181;28;98706;-81
2023/06/22 01:12:59;;;;;;;4.53;4.23;;;;;;;21.50;54.42;101678.09;4979557;28;99515;-80
2023/06/22 01:15:31;;;;;;;5.07;4.67;;;;;;;21.47;54.79;101668.72;4991166;28;97697;-82
2023/06/22 01:17:58;;;;;;;3.83;3.53;;;;;;;21.43;54.55;101671.13;4983485;28;96765;-81
2023/06/22 01:20:27;;;;;;;5.10;4.70;;;;;;;21.42;54.59;101671.66;4993142;28;99437;-83
2023/06/22 01:23:05;;;;;;;4.57;4.17;;;;;;;21.35;55.27;101667.50;4982289;28;99462;-82
2023/06/22 01:25:59;;;;;;;4.17;3.87;;;;;;;21.26;55.98;101665.16;4979868;28;97218;-82
2023/06/22 01:28:43;;;;;;;5.07;4.67;;;;;;;21.22;55.92;101661.16;4989168;28;96888;-81
2023/06/22 01:31:12;;;;;;;4.07;3.77;;;;;;;21.18;55.12;101664.31;4968925;28;99311;-81
2023/06/22 01:33:41;;;;;;;4.93;4.53;;;;;;;21.15;55.07;101661.84;4983876;28;99793;-82
2023/06/22 01:36:07;;;;;;;5.03;4.70;;;;;;;21.06;55.18;101665.06;5000337;28;97178;-82
2023/06/22 01:38:33;;;;;;;5.40;4.90;;;;;;;21.08;55.20;101642.91;4984829;28;97014;-82
2023/06/22 01:41:00;;;;;;;4.40;4.00;;;;;;;20.99;55.29;101643.34;4999296;28;97224;-82
2023/06/22 01:43:27;;;;;;;4.17;3.87;;;;;;;20.87;55.40;101623.22;4995210;28;97445;-81
2023/06/22 01:45:54;;;;;;;5.27;4.87;;;;;;;20.88;55.44;101655.53;4995391;28;97199;-82
2023/06/22 01:48:21;;;;;;;5.13;4.63;;;;;;;20.86;55.53;101655.28;4985915;28;97126;-81
2023/06/22 01:50:47;;;;;;;5.60;5.13;;;;;;;20.84;55.53;101646.69;4977642;28;100688;-81
2023/06/22 01:53:12;;;;;;;5.20;4.80;;;;;;;20.79;55.37;101650.38;4969658;28;98638;-80
2023/06/22 01:55:37;;;;;;;4.73;4.37;;;;;;;20.73;55.83;101646.91;4992803;28;97847;-80
2023/06/22 01:58:03;;;;;;;5.40;5.00;;;;;;;20.68;55.81;101640.16;4990224;28;97044;-80
2023/06/22 02:00:36;;;;;;;4.93;4.53;;;;;;;20.66;56.12;101648.31;4980942;28;100590;-80
2023/06/22 02:03:28;;;;;;;5.40;4.90;;;;;;;20.71;56.99;101650.25;4992552;28;98686;-81
2023/06/22 02:06:01;;;;;;;5.00;4.57;;;;;;;20.63;55.92;101646.63;4993358;28;97322;-81
2023/06/22 02:08:31;;;;;;;4.37;4.07;;;;;;;20.63;56.29;101652.22;4981349;28;96923;-80
2023/06/22 02:10:59;;;;;;;5.40;5.00;;;;;;;20.57;56.12;101648.00;4979398;28;100345;-80
2023/06/22 02:13:25;;;;;;;4.53;4.13;;;;;;;20.59;56.14;101648.22;4962215;28;99414;-81
2023/06/22 02:15:51;;;;;;;4.57;4.17;;;;;;;20.52;56.12;101672.00;4993872;28;97402;-81
2023/06/22 02:18:16;;;;;;;5.20;4.80;;;;;;;20.47;56.34;101644.13;4987949;28;97346;-81
2023/06/22 02:20:42;;;;;;;5.10;4.70;;;;;;;20.49;56.34;101636.72;4988392;28;97640;-81
2023/06/22 02:23:08;;;;;;;4.60;4.30;;;;;;;20.46;56.47;101646.19;4983279;28;97093;-81
2023/06/22 02:25:34;;;;;;;4.60;4.30;;;;;;;20.46;56.52;101631.44;4987471;28;97378;-82
2023/06/22 02:27:59;;;;;;;4.60;4.20;;;;;;;20.43;56.44;101647.25;4988095;28;97390;-81
2023/06/22 02:30:25;;;;;;;4.60;4.20;;;;;;;20.43;56.59;101654.88;4969205;28;100710;-81
2023/06/22 02:32:58;;;;;;;4.90;4.40;;;;;;;20.43;56.54;101646.50;4988844;28;100131;-82
2023/06/22 02:35:24;;;;;;;4.37;3.97;;;;;;;20.37;56.74;101637.47;4973674;28;96772;-81
2023/06/22 02:37:51;;;;;;;4.77;4.37;;;;;;;20.33;56.81;101643.38;4989306;28;97226;-82
2023/06/22 02:40:17;;;;;;;4.87;4.57;;;;;;;20.32;56.86;101653.06;4973346;28;99290;-81
2023/06/22 02:42:42;;;;;;;5.00;4.60;;;;;;;20.34;56.92;101647.69;4974943;28;98990;-81
2023/06/22 02:45:08;;;;;;;4.73;4.37;;;;;;;20.38;56.88;101653.69;4990372;28;97401;-82
2023/06/22 02:47:33;;;;;;;4.33;4.03;;;;;;;20.41;57.01;101660.25;4989072;28;97133;-82
2023/06/22 02:49:59;;;;;;;4.20;3.90;;;;;;;20.36;56.91;101659.06;4972742;28;101064;-81
2023/06/22 02:52:24;;;;;;;5.20;4.40;;;;;;;20.41;56.83;101660.25;4972174;28;100030;-81
2023/06/22 02:54:50;;;;;;;4.67;4.37;;;;;;;20.43;56.92;101663.28;4969793;28;97602;-81
2023/06/22 02:57:15;;;;;;;5.23;4.37;;;;;;;20.45;57.08;101669.84;4988201;28;97067;-81
2023/06/22 02:59:41;;;;;;;4.50;4.20;;;;;;;20.44;57.09;101668.34;4996340;28;98788;-81
2023/06/22 03:02:07;;;;;;;4.07;3.77;;;;;;;20.43;56.96;101689.19;4990855;28;97538;-82
2023/06/22 03:04:33;;;;;;;3.60;3.40;;;;;;;20.38;57.04;101712.41;4987841;28;97328;-81
2023/06/22 03:07:01;;;;;;;4.40;4.10;;;;;;;20.36;57.07;101689.81;4986987;28;96634;-82
2023/06/22 03:09:27;;;;;;;4.13;3.83;;;;;;;20.38;57.04;101687.25;4991998;28;97526;-81
2023/06/22 03:11:56;;;;;;;4.50;4.10;;;;;;;20.38;57.03;101695.63;4990120;28;97543;-81
2023/06/22 03:14:21;;;;;;;4.10;3.80;;;;;;;20.40;57.07;101703.50;4987973;28;97305;-81
2023/06/22 03:16:47;;;;;;;4.20;3.90;;;;;;;20.39;57.21;101690.78;4988147;28;97685;-81
2023/06/22 03:19:13;;;;;;;3.67;3.47;;;;;;;20.43;56.99;101694.78;4990452;28;98068;-81
2023/06/22 03:21:47;;;;;;;4.43;4.10;;;;;;;20.41;57.81;101700.16;4986414;28;97450;-81
2023/06/22 03:24:13;;;;;;;3.80;3.43;;;;;;;20.37;57.19;101705.31;4986430;28;97243;-81
2023/06/22 03:26:38;;;;;;;4.17;3.87;;;;;;;20.39;57.07;101699.94;4992431;28;96701;-81
2023/06/22 03:29:03;;;;;;;4.10;3.70;;;;;;;20.39;57.06;101699.94;4977687;28;100834;-81
2023/06/22 03:31:29;;;;;;;4.07;3.77;;;;;;;20.38;57.29;101695.63;4976295;28;99991;-78
2023/06/22 03:33:54;;;;;;;3.70;3.50;;;;;;;20.39;57.08;101690.78;4987393;28;103676;-80
2023/06/22 03:36:19;;;;;;;7.20;4.10;;;;;;;20.40;57.20;101703.50;4976098;28;97425;-80
2023/06/22 03:38:46;;;;;;;4.33;4.03;;;;;;;20.43;57.24;101696.81;4986500;28;98141;-80
2023/06/22 03:41:11;;;;;;;4.03;3.83;;;;;;;20.45;57.29;101700.59;4970557;28;99998;-81
2023/06/22 03:43:37;;;;;;;4.70;4.30;;;;;;;20.44;57.11;101704.69;4987407;28;97152;-81
2023/06/22 03:46:02;;;;;;;4.47;4.17;;;;;;;20.38;57.13;101712.41;4970567;28;96757;-81
2023/06/22 03:48:27;;;;;;;3.93;3.60;;;;;;;20.39;57.15;101702.75;4971224;28;97893;-81
2023/06/22 03:50:53;;;;;;;4.10;3.80;;;;;;;20.36;57.26;101705.84;4985771;28;98229;-80
2023/06/22 03:53:18;;;;;;;4.07;3.50;;;;;;;20.35;57.45;101696.72;4990247;28;97517;-81
2023/06/22 03:55:51;;;;;;;4.73;4.33;;;;;;;20.33;57.83;101715.31;4980299;28;97167;-80
2023/06/22 03:58:18;;;;;;;4.37;4.07;;;;;;;20.35;57.42;101702.31;4984652;28;102046;-80
2023/06/22 04:00:50;;;;;;;4.60;4.20;;;;;;;20.29;57.31;101684.13;4962826;28;100640;-80
2023/06/22 04:03:18;;;;;;;4.17;3.87;;;;;;;20.33;57.47;101707.69;4969631;28;97073;-81
2023/06/22 04:05:44;;;;;;;4.47;4.17;;;;;;;20.36;57.39;101697.44;4985621;28;97506;-80
2023/06/22 04:08:09;;;;;;;4.10;3.70;;;;;;;20.37;57.58;101702.53;4983359;28;97545;-80
2023/06/22 04:10:34;;;;;;;4.13;3.83;;;;;;;20.37;57.43;101688.53;4982575;28;97703;-81
2023/06/22 04:13:00;;;;;;;4.33;4.03;;;;;;;20.40;57.57;101693.03;4988650;28;97064;-81
2023/06/22 04:15:26;;;;;;;4.90;4.50;;;;;;;20.39;57.52;101699.94;4966462;28;96896;-82
2023/06/22 04:17:51;;;;;;;3.70;3.50;;;;;;;20.40;57.42;101692.31;4985331;28;99319;-81
2023/06/22 04:20:17;;;;;;;4.27;3.97;;;;;;;20.40;57.65;101698.63;4972201;28;101187;-80
2023/06/22 04:22:42;;;;;;;4.57;4.10;;;;;;;20.42;57.53;101695.31;4989703;28;97143;-81
2023/06/22 04:25:08;;;;;;;4.50;4.20;;;;;;;20.38;57.69;101695.63;4970986;28;97341;-83
2023/06/22 04:27:39;;;;;;;3.90;3.60;;;;;;;20.39;57.84;101690.78;4972077;28;99546;-81
2023/06/22 04:30:06;;;;;;;3.97;3.67;;;;;;;20.35;57.97;101696.72;4963895;28;100276;-80
2023/06/22 04:32:32;;;;;;;4.10;3.80;;;;;;;20.36;58.14;101705.84;4985202;28;97024;-77
2023/06/22 04:34:58;;;;;;;4.23;3.93;;;;;;;20.40;58.02;101704.22;4990301;28;96938;-81
2023/06/22 04:37:24;;;;;;;4.20;3.90;;;;;;;20.45;58.14;101716.59;4984999;28;98068;-81
2023/06/22 04:39:49;;;;;;;3.47;3.27;;;;;;;20.52;58.19;101707.59;4976962;28;99274;-81
2023/06/22 04:42:15;;;;;;;3.80;3.50;;;;;;;20.60;58.09;101700.81;4988923;28;97352;-81
2023/06/22 04:44:42;;;;;;;4.23;3.70;;;;;;;20.66;58.04;101704.25;4990461;28;97123;-81
2023/06/22 04:47:08;;;;;;;4.20;3.90;;;;;;;20.75;57.95;101712.22;4988455;28;96807;-81
2023/06/22 04:49:37;;;;;;;3.50;3.30;;;;;;;20.82;58.08;101703.19;4981052;28;97487;-77
2023/06/22 04:52:04;;;;;;;4.33;3.60;;;;;;;20.88;57.76;101692.63;4988951;28;97010;-81
2023/06/22 04:54:32;;;;;;;4.10;3.70;;;;;;;20.92;57.98;101737.81;4959232;28;97344;-81
2023/06/22 04:57:01;;;;;;;3.80;3.57;;;;;;;20.94;57.81;101709.31;4992783;28;99258;-80
2023/06/22 04:59:29;;;;;;;3.97;3.67;;;;;;;21.03;57.83;101697.72;4989117;28;97416;-81
2023/06/22 05:02:00;;;;;;;3.80;3.50;;;;;;;21.05;57.69;101709.13;4988825;28;96878;-82
2023/06/22 05:04:27;;;;;;;3.80;3.10;;;;;;;21.10;57.71;101707.50;4990958;28;97415;-82
2023/06/22 05:06:54;;;;;;;4.00;3.67;;;;;;;21.15;57.70;101696.16;4990784;28;97107;-81
2023/06/22 05:09:20;;;;;;;3.53;3.23;;;;;;;21.15;57.63;101703.81;4975375;28;99127;-81
2023/06/22 05:11:46;;;;;;;3.97;3.67;;;;;;;21.16;57.71;101691.34;4989949;28;97125;-81
2023/06/22 05:14:11;;;;;;;3.77;3.47;;;;;;;21.17;57.75;101690.03;4991180;28;97000;-81
2023/06/22 05:16:38;;;;;;;3.30;3.10;;;;;;;21.24;57.73;101706.16;4993909;28;97820;-81
2023/06/22 05:19:03;;;;;;;3.37;3.17;;;;;;;21.31;57.79;101697.13;4993022;28;97426;-82
2023/06/22 05:21:29;;;;;;;4.23;3.93;;;;;;;21.32;57.59;101684.59;4974645;28;97361;-81
2023/06/22 05:23:59;;;;;;;3.70;3.40;;;;;;;21.38;57.59;101682.44;4992529;28;97051;-81
2023/06/22 05:26:26;;;;;;;3.40;3.20;;;;;;;21.45;57.54;101684.56;4993311;28;97998;-82
2023/06/22 05:28:52;;;;;;;3.27;3.07;;;;;;;21.57;57.49;101683.78;4993069;28;97439;-81
2023/06/22 05:31:19;;;;;;;3.73;3.50;;;;;;;21.63;57.44;101676.00;4993631;28;96892;-81
2023/06/22 05:33:45;;;;;;;3.47;3.20;;;;;;;21.77;57.33;101695.53;4977284;28;96993;-80
2023/06/22 05:36:12;;;;;;;3.60;3.30;;;;;;;21.85;57.11;101677.53;4989167;28;98061;-82
2023/06/22 05:38:38;;;;;;;9.23;3.00;;;;;;;21.94;57.12;101682.66;4992785;28;96719;-80
2023/06/22 05:41:04;;;;;;;2.70;2.60;;;;;;;22.03;56.79;101675.81;4992735;28;97399;-81
2023/06/22 05:43:29;;;;;;;3.27;2.97;;;;;;;22.11;56.70;101685.78;4992212;28;96715;-82
2023/06/22 05:45:54;;;;;;;2.80;2.60;;;;;;;22.21;56.63;101667.16;4971076;28;99117;-82
2023/06/22 05:48:20;;;;;;;2.80;2.57;;;;;;;22.28;56.27;101674.88;4989005;28;97500;-82
2023/06/22 05:50:45;;;;;;;2.90;2.70;;;;;;;22.39;56.18;101666.19;4971608;28;97050;-82
2023/06/22 05:53:11;;;;;;;3.20;3.00;;;;;;;22.41;56.31;101662.81;4987254;28;96758;-80
2023/06/22 05:55:36;;;;;;;3.10;2.77;;;;;;;22.50;56.24;101670.00;4988671;28;99388;-82
2023/06/22 05:58:03;;;;;;;3.00;2.80;;;;;;;22.62;55.96;101677.59;4971860;28;99857;-81
2023/06/22 06:00:28;;;;;;;3.00;2.80;;;;;;;22.71;55.94;101674.28;4975681;28;96886;-81
2023/06/22 06:02:53;;;;;;;2.40;2.30;;;;;;;22.77;55.79;101693.75;4990389;28;97231;-81
2023/06/22 06:05:19;;;;;;;2.47;2.20;;;;;;;22.90;55.32;101665.56;4980148;28;102801;-81
2023/06/22 06:07:45;;;;;;;2.30;2.10;;;;;;;23.01;55.86;101668.03;4992509;28;96878;-79
2023/06/22 06:10:11;;;;;;;2.33;2.23;;;;;;;23.14;55.53;101667.91;4973285;28;96869;-82
2023/06/22 06:12:36;;;;;;;2.43;2.33;;;;;;;23.29;55.31;101686.84;4986654;28;97059;-82
2023/06/22 06:15:02;;;;;;;2.40;2.30;;;;;;;23.40;54.69;101675.31;4988156;28;97903;-80
2023/06/22 06:17:28;;;;;;;2.53;2.37;;;;;;;23.50;54.75;101688.25;4985933;28;97616;-80
2023/06/22 06:19:53;;;;;;;3.30;2.70;;;;;;;23.63;54.30;101670.50;4987461;28;97522;-82
2023/06/22 06:22:20;;;;;;;2.60;2.10;;;;;;;23.69;54.23;101685.88;4979325;28;97654;-81
2023/06/22 06:24:47;;;;;;;2.67;2.47;;;;;;;23.73;53.70;101668.63;4989604;28;97026;-79
2023/06/22 06:27:13;;;;;;;2.90;2.70;;;;;;;23.77;53.34;101660.56;4969506;28;98985;-81
2023/06/22 06:29:38;;;;;;;2.40;2.23;;;;;;;23.85;53.03;101664.88;4990625;28;97197;-80
2023/06/22 06:32:03;;;;;;;2.60;2.40;;;;;;;23.91;52.90;101673.16;4989146;28;97148;-83
2023/06/22 06:34:29;;;;;;;2.33;2.13;;;;;;;23.97;52.75;101653.28;4977126;28;99279;-81
2023/06/22 06:36:54;;;;;;;2.80;2.60;;;;;;;24.03;52.50;101662.25;4989180;28;97219;-82
2023/06/22 06:39:20;;;;;;;2.63;2.47;;;;;;;24.13;52.57;101655.56;4974933;28;96841;-80
2023/06/22 06:41:45;;;;;;;2.13;2.03;;;;;;;24.28;52.33;101657.59;4989519;28;97138;-81
2023/06/22 06:44:11;;;;;;;6.70;2.30;;;;;;;24.34;52.19;101649.69;4975061;28;100047;-81
2023/06/22 06:46:37;;;;;;;2.20;2.10;;;;;;;24.38;52.19;101661.31;4946350;28;1214449;-81
2023/06/22 06:49:03;;;;;;;2.40;2.20;;;;;;;24.47;51.84;101661.50;4992003;28;97112;-82
2023/06/22 06:51:28;;;;;;;2.67;2.50;;;;;;;24.58;51.96;101649.84;4988155;28;96964;-81
2023/06/22 06:53:53;;;;;;;2.60;2.40;;;;;;;24.71;51.88;101656.56;4988361;28;97841;-80
2023/06/22 06:56:19;;;;;;;2.43;2.23;;;;;;;24.79;51.95;101655.22;4993498;28;97490;-81
2023/06/22 06:58:45;;;;;;;3.23;2.93;;;;;;;24.87;51.59;101647.53;4988584;28;97475;-80
2023/06/22 07:01:12;;;;;;;2.40;2.20;;;;;;;24.94;51.13;101652.38;4990050;28;97086;-81
2023/06/22 07:03:37;;;;;;;2.30;2.20;;;;;;;25.04;51.21;101653.25;4974976;28;100826;-80
2023/06/22 07:06:02;;;;;;;2.33;2.23;;;;;;;25.11;50.97;101644.03;4960511;28;99631;-82
2023/06/22 07:08:28;;;;;;;2.53;2.33;;;;;;;25.23;50.98;101645.09;4990237;28;97202;-80
2023/06/22 07:10:54;;;;;;;2.63;2.30;;;;;;;25.36;50.65;101654.59;4987168;28;97233;-80
2023/06/22 07:13:19;;;;;;;2.80;2.60;;;;;;;25.44;50.64;101647.63;4987640;28;98139;-82
2023/06/22 07:15:44;;;;;;;3.83;2.80;;;;;;;25.53;50.45;101655.47;4993263;28;97379;-79
2023/06/22 07:18:10;;;;;;;2.80;2.60;;;;;;;25.61;50.34;101653.34;4990609;28;97017;-81
2023/06/22 07:20:35;;;;;;;2.63;2.53;;;;;;;25.64;50.10;101632.44;4974919;28;97508;-82
2023/06/22 07:23:01;;;;;;;2.70;2.60;;;;;;;25.69;49.87;101637.09;4971150;28;99193;-81
2023/06/22 07:25:26;;;;;;;2.50;2.30;;;;;;;25.75;50.02;101648.91;4986965;28;98402;-81
2023/06/22 07:28:06;;;;;;;2.40;2.30;;;;;;;25.87;49.42;101643.53;4957831;28;97560;-82
2023/06/22 07:30:33;;;;;;;2.20;2.10;;;;;;;25.99;49.70;101638.94;4969647;28;97711;-81
2023/06/22 07:33:02;;;;;;;2.53;2.43;;;;;;;26.05;49.44;101647.91;4989777;28;97990;-82
2023/06/22 07:35:29;;;;;;;2.80;2.60;;;;;;;26.16;49.20;101641.81;4989474;28;99011;-81
2023/06/22 07:37:54;;;;;;;2.40;2.20;;;;;;;26.23;48.99;101632.53;4987734;28;97088;-82
2023/06/22 07:40:19;;;;;;;2.90;2.70;;;;;;;26.31;48.93;101627.56;4987260;28;97267;-81
2023/06/22 07:42:47;;;;;;;3.10;2.80;;;;;;;26.37;48.75;101628.06;4988062;28;97824;-81
2023/06/22 07:45:13;;;;;;;2.27;2.07;;;;;;;26.48;48.56;101627.56;4986904;28;97391;-81
2023/06/22 07:47:38;;;;;;;2.20;2.10;;;;;;;26.56;48.51;101622.56;4973642;28;97691;-80
2023/06/22 07:50:04;;;;;;;2.57;2.37;;;;;;;26.73;48.22;101633.88;4993677;28;97314;-82
2023/06/22 07:52:30;;;;;;;2.37;2.27;;;;;;;26.86;48.07;101620.75;4990822;28;98661;-80
2023/06/22 07:54:55;;;;;;;2.57;2.47;;;;;;;26.97;47.68;101625.88;4986950;28;97578;-81
2023/06/22 07:57:21;;;;;;;2.70;2.50;;;;;;;27.05;47.27;101632.16;4960673;28;97155;-81
2023/06/22 07:59:47;;;;;;;3.10;2.90;;;;;;;27.10;46.97;101629.09;4990136;28;97171;-82
2023/06/22 08:02:12;;;;;;;2.77;2.57;;;;;;;27.13;46.81;101622.25;4985982;28;99571;-81
2023/06/22 08:04:38;;;;;;;3.00;2.40;;;;;;;27.17;46.96;101627.50;4977578;28;99573;-81
2023/06/22 08:07:04;;;;;;;2.90;2.70;;;;;;;27.27;46.60;101622.63;4990729;28;96934;-82
2023/06/22 08:09:33;;;;;;;2.90;2.70;;;;;;;27.40;46.67;101614.53;4987665;28;97112;-81
2023/06/22 08:11:59;;;;;;;3.00;2.80;;;;;;;27.53;46.59;101612.66;4984343;28;97750;-82
2023/06/22 08:14:26;;;;;;;3.13;2.93;;;;;;;27.61;46.36;101608.34;4994496;28;97671;-82
2023/06/22 08:16:51;;;;;;;3.20;3.00;;;;;;;27.71;46.53;101611.22;4986889;28;97003;-81
2023/06/22 08:19:17;;;;;;;2.87;2.67;;;;;;;27.87;46.59;101624.50;4989675;28;97744;-81
2023/06/22 08:21:43;;;;;;;3.40;3.10;;;;;;;27.95;46.24;101621.56;4991904;28;97420;-83
2023/06/22 08:24:08;;;;;;;3.27;3.07;;;;;;;28.05;45.65;101620.28;4984078;28;98086;-82
2023/06/22 08:26:36;;;;;;;3.57;3.30;;;;;;;28.07;45.99;101616.84;4971760;28;98311;-81
2023/06/22 08:29:02;;;;;;;3.00;2.80;;;;;;;28.16;46.11;101616.09;4988184;28;97107;-82
2023/06/22 08:31:28;;;;;;;3.50;3.20;;;;;;;28.26;45.94;101604.81;4983857;28;99487;-81
2023/06/22 08:33:53;;;;;;;5.87;3.40;;;;;;;28.38;45.78;101614.94;4967738;28;100574;-82
2023/06/22 08:36:18;;;;;;;3.90;3.50;;;;;;;28.47;45.62;101621.94;4985151;28;98603;-81
2023/06/22 08:38:44;;;;;;;3.80;3.50;;;;;;;28.55;45.38;101637.44;4986573;28;97548;-83
2023/06/22 08:41:10;;;;;;;3.30;3.10;;;;;;;28.70;45.23;101616.63;4985564;28;99891;-82
2023/06/22 08:43:35;;;;;;;4.03;3.63;;;;;;;28.85;45.55;101610.63;4983276;28;97495;-83
2023/06/22 08:46:02;;;;;;;3.93;3.63;;;;;;;29.03;44.97;101614.03;4988935;28;97103;-82
2023/06/22 08:48:27;;;;;;;4.03;3.73;;;;;;;29.15;44.90;101601.44;4986649;28;98134;-83
2023/06/22 08:50:53;;;;;;;3.80;3.60;;;;;;;29.17;44.74;101624.28;4986440;28;96906;-83
2023/06/22 08:53:18;;;;;;;4.30;4.00;;;;;;;29.14;44.51;101597.09;4992677;28;97444;-82
2023/06/22 08:55:45;;;;;;;4.70;4.37;;;;;;;29.12;44.65;101590.56;4986179;28;97413;-82
2023/06/22 08:58:10;;;;;;;4.13;3.83;;;;;;;29.14;44.47;101611.28;4985365;28;97245;-82
2023/06/22 09:00:35;;;;;;;4.97;4.47;;;;;;;29.20;44.62;101591.91;4986603;28;97043;-82
2023/06/22 09:03:01;;;;;;;5.50;5.10;;;;;;;29.23;44.04;101579.34;4973199;28;99010;-82
2023/06/22 09:05:26;;;;;;;5.50;5.00;;;;;;;29.24;44.19;101585.78;4986216;28;97243;-82
2023/06/22 09:07:52;;;;;;;5.43;4.93;;;;;;;29.20;44.53;101577.75;4971831;28;97225;-81
2023/06/22 09:10:18;;;;;;;5.80;5.40;;;;;;;29.24;44.51;101594.28;4985425;28;98619;-82
2023/06/22 09:12:43;;;;;;;4.67;4.37;;;;;;;29.28;44.43;101580.38;4975653;28;100891;-82
2023/06/22 09:15:10;;;;;;;5.13;4.63;;;;;;;29.28;44.45;101598.16;4988103;28;97577;-83
2023/06/22 09:17:35;;;;;;;5.10;4.70;;;;;;;29.39;44.57;101586.16;4988239;28;97944;-83
2023/06/22 09:20:01;;;;;;;6.07;5.57;;;;;;;29.52;44.46;101579.22;4985379;28;97791;-82
2023/06/22 09:22:29;;;;;;;5.90;5.40;;;;;;;29.62;43.98;101575.00;4986997;28;96906;-83
2023/06/22 09:24:58;;;;;;;6.50;5.90;;;;;;;29.66;43.76;101594.41;4985890;28;96930;-83
2023/06/22 09:27:23;;;;;;;5.90;5.50;;;;;;;29.83;43.68;101565.03;4975053;28;97209;-82
2023/06/22 09:29:50;;;;;;;6.07;5.60;;;;;;;29.98;43.76;101568.22;4966773;28;101127;-82
2023/06/22 09:32:15;;;;;;;5.67;5.27;;;;;;;30.11;43.78;101564.09;4985048;28;97632;-83
2023/06/22 09:34:41;;;;;;;5.90;5.50;;;;;;;30.17;43.46;101553.88;4987863;28;97146;-83
2023/06/22 09:37:06;;;;;;;6.10;5.60;;;;;;;30.27;43.07;101560.22;4954386;28;100851;-83
2023/06/22 09:39:32;;;;;;;7.33;6.60;;;;;;;30.27;42.90;101553.81;4983640;28;97849;-83
2023/06/22 09:41:59;;;;;;;6.40;5.80;;;;;;;30.27;43.06;101539.63;4982083;28;99270;-83
2023/06/22 09:44:24;;;;;;;8.50;5.37;;;;;;;30.37;43.10;101543.13;4954722;28;97527;-82
2023/06/22 09:46:50;;;;;;;6.17;5.73;;;;;;;30.47;43.05;101554.41;4989824;28;96663;-82
2023/06/22 09:49:15;;;;;;;5.20;4.80;;;;;;;30.59;42.84;101555.19;4986797;28;98889;-82
2023/06/22 09:51:40;;;;;;;5.30;4.90;;;;;;;30.81;42.47;101531.75;4972597;28;99282;-82
2023/06/22 09:54:06;;;;;;;6.23;5.63;;;;;;;31.10;42.57;101529.34;4966115;28;102647;-83
2023/06/22 09:56:31;;;;;;;6.40;5.77;;;;;;;31.12;42.40;101531.56;4988053;28;98082;-83
2023/06/22 09:58:56;;;;;;;6.30;5.70;;;;;;;31.12;42.55;101525.88;4985845;28;100631;-83
2023/06/22 10:01:22;;;;;;;5.90;5.50;;;;;;;31.05;42.17;101539.00;4970046;28;100114;-82
2023/06/22 10:03:48;;;;;;;6.30;5.80;;;;;;;30.92;42.37;101547.38;4987434;28;96898;-83
2023/06/22 10:06:13;;;;;;;6.63;6.10;;;;;;;30.79;42.34;101543.00;4968460;28;97171;-83
2023/06/22 10:08:39;;;;;;;9.50;6.00;;;;;;;30.70;42.41;101532.47;4985991;28;97900;-83
2023/06/22 10:11:04;;;;;;;6.63;6.13;;;;;;;30.59;42.04;101532.44;4967264;28;100173;-82
2023/06/22 10:13:29;;;;;;;8.60;5.80;;;;;;;30.47;42.50;101532.41;4988900;28;97071;-82
2023/06/22 10:15:55;;;;;;;6.67;6.07;;;;;;;30.41;42.28;101514.97;4983513;28;97122;-82
2023/06/22 10:18:21;;;;;;;5.20;4.90;;;;;;;30.43;42.24;101514.38;4987306;28;97391;-82
2023/06/22 10:20:51;;;;;;;6.40;5.90;;;;;;;30.47;41.69;101508.97;4971017;28;99570;-83
2023/06/22 10:23:17;;;;;;;6.77;6.10;;;;;;;30.50;42.36;101524.75;4986353;28;97691;-82
2023/06/22 10:25:42;;;;;;;5.97;5.47;;;;;;;30.61;42.18;101519.13;4965727;28;96973;-84
2023/06/22 10:28:07;;;;;;;7.17;6.57;;;;;;;30.58;41.97;101511.81;4969537;28;99556;-84
2023/06/22 10:30:33;;;;;;;6.13;5.73;;;;;;;30.58;42.05;101514.66;4983373;28;97534;-83
2023/06/22 10:32:58;;;;;;;5.80;5.40;;;;;;;30.69;42.38;101513.94;4967793;28;96990;-82
2023/06/22 10:35:23;;;;;;;6.40;5.80;;;;;;;30.71;42.30;101531.13;4987764;28;97347;-82
2023/06/22 10:37:49;;;;;;;6.40;5.90;;;;;;;30.79;41.78;101517.44;4984790;28;98136;-83
2023/06/22 10:40:16;;;;;;;6.80;6.20;;;;;;;30.80;42.02;101516.06;4972271;28;99396;-82
2023/06/22 10:42:43;;;;;;;6.23;5.73;;;;;;;30.85;41.89;101502.84;4986855;28;97341;-82
2023/06/22 10:45:08;;;;;;;6.63;6.03;;;;;;;30.83;41.60;101500.63;4964462;28;97275;-83
2023/06/22 10:47:34;;;;;;;6.63;6.03;;;;;;;30.84;41.77;101501.38;4982657;28;97304;-83
2023/06/22 10:50:01;;;;;;;5.93;5.30;;;;;;;30.89;41.93;101509.56;4976396;28;100232;-83
2023/06/22 10:52:26;;;;;;;6.20;5.70;;;;;;;30.91;41.73;101497.56;4983992;28;96982;-83
2023/06/22 10:54:52;;;;;;;6.23;5.67;;;;;;;30.88;41.53;101501.66;4985740;28;97183;-82
2023/06/22 10:57:18;;;;;;;6.07;5.57;;;;;;;30.87;41.52;101498.06;4970027;28;99534;-83
2023/06/22 10:59:43;;;;;;;7.30;6.77;;;;;;;30.90;41.51;101491.16;4967001;28;99484;-84
2023/06/22 11:02:08;;;;;;;6.77;6.27;;;;;;;30.94;41.73;101499.94;4962945;28;98124;-83
2023/06/22 11:04:34;;;;;;;6.23;5.73;;;;;;;30.96;41.69;101485.84;4970571;28;98419;-83
2023/06/22 11:06:59;;;;;;;6.80;6.20;;;;;;;31.03;41.61;101504.00;4970029;28;98577;-83
2023/06/22 11:09:24;;;;;;;10.20;6.00;;;;;;;31.02;41.86;101500.41;4970876;28;98710;-82
2023/06/22 11:11:53;;;;;;;6.27;5.80;;;;;;;31.07;41.47;101485.09;4955457;28;97923;-82
2023/06/22 11:14:19;;;;;;;6.97;6.47;;;;;;;31.14;41.35;101491.16;4956739;28;98479;-82
2023/06/22 11:16:46;;;;;;;10.03;6.80;;;;;;;31.26;41.08;101494.75;4972706;28;100212;-85
2023/06/22 11:19:11;;;;;;;6.70;6.20;;;;;;;31.25;41.04;101484.72;4979348;28;100249;-83
2023/06/22 11:21:37;;;;;;;5.93;5.53;;;;;;;31.28;41.29;101492.72;4975394;28;98559;-82